createdAt,value
2023-12-10T00:00:52.917Z,88.98
2023-12-10T00:03:23.341Z,88.85
2023-12-10T00:06:04.100Z,88.82
2023-12-10T00:08:42.958Z,88.80
2023-12-10T00:11:14.723Z,88.81
2023-12-10T00:13:47.018Z,88.48
2023-12-10T00:16:17.678Z,88.81
2023-12-10T00:18:48.247Z,88.50
2023-12-10T00:21:19.651Z,89.11
2023-12-10T00:23:49.993Z,88.89
2023-12-10T00:26:20.157Z,89.24
2023-12-10T00:28:50.495Z,89.38
2023-12-10T00:31:20.915Z,89.38
2023-12-10T00:33:51.527Z,89.27
2023-12-10T00:36:21.418Z,89.78
2023-12-10T00:38:51.834Z,89.87
2023-12-10T00:41:22.093Z,89.81
2023-12-10T00:43:53.039Z,89.79
2023-12-10T00:46:23.554Z,90.50
2023-12-10T00:48:53.435Z,90.17
2023-12-10T00:51:25.345Z,90.39
2023-12-10T00:53:57.465Z,90.36
2023-12-10T00:56:27.602Z,90.89
2023-12-10T00:58:57.457Z,90.78
2023-12-10T01:01:27.878Z,90.97
2023-12-10T01:03:59.131Z,90.99
2023-12-10T01:06:29.643Z,90.91
2023-12-10T01:08:59.470Z,91.03
2023-12-10T01:11:30.023Z,91.27
2023-12-10T01:13:59.810Z,91.24
2023-12-10T01:16:30.151Z,90.66
2023-12-10T01:19:00.500Z,90.52
2023-12-10T01:21:31.337Z,90.28
2023-12-10T01:24:02.428Z,90.21
2023-12-10T01:26:33.047Z,89.86
2023-12-10T01:29:03.177Z,89.76
2023-12-10T01:31:38.205Z,89.85
2023-12-10T01:34:08.390Z,89.71
2023-12-10T01:36:39.339Z,89.38
2023-12-10T01:39:10.042Z,89.58
2023-12-10T01:41:40.623Z,89.72
2023-12-10T01:44:12.477Z,89.96
2023-12-10T01:46:42.865Z,89.93
2023-12-10T01:49:13.450Z,89.43
2023-12-10T01:51:46.408Z,89.01
2023-12-10T01:54:34.785Z,88.80
2023-12-10T01:57:07.452Z,88.54
2023-12-10T01:59:39.535Z,88.55
2023-12-10T02:02:10.209Z,88.99
2023-12-10T02:04:40.485Z,89.16
2023-12-10T02:07:10.864Z,89.07
2023-12-10T02:09:40.629Z,88.96
2023-12-10T02:12:11.061Z,88.73
2023-12-10T02:14:41.511Z,89.12
2023-12-10T02:17:12.043Z,88.94
2023-12-10T02:19:41.971Z,88.53
2023-12-10T02:22:16.375Z,88.63
2023-12-10T02:25:08.283Z,88.69
2023-12-10T02:27:39.941Z,88.66
2023-12-10T02:30:11.820Z,88.59
2023-12-10T02:32:42.233Z,88.24
2023-12-10T02:35:13.124Z,88.50
2023-12-10T02:37:44.355Z,89.03
2023-12-10T02:40:14.877Z,89.30
2023-12-10T02:42:46.209Z,89.04
2023-12-10T02:45:17.687Z,89.63
2023-12-10T02:47:48.465Z,89.60
2023-12-10T02:50:18.365Z,89.88
2023-12-10T02:52:49.298Z,90.17
2023-12-10T02:55:20.555Z,90.71
2023-12-10T02:57:51.927Z,91.03
2023-12-10T03:00:22.529Z,90.91
2023-12-10T03:02:52.399Z,91.14
2023-12-10T03:05:22.827Z,91.42
2023-12-10T03:07:53.703Z,91.66
2023-12-10T03:10:23.791Z,92.25
2023-12-10T03:12:53.557Z,92.77
2023-12-10T03:15:23.894Z,93.25
2023-12-10T03:17:54.388Z,93.69
2023-12-10T03:20:25.492Z,93.92
2023-12-10T03:22:55.483Z,94.05
2023-12-10T03:25:26.318Z,94.28
2023-12-10T03:27:57.552Z,94.41
2023-12-10T03:30:28.096Z,94.72
2023-12-10T03:32:58.925Z,95.01
2023-12-10T03:35:29.183Z,95.03
2023-12-10T03:37:59.477Z,95.03
2023-12-10T03:40:30.281Z,94.98
2023-12-10T03:43:00.056Z,95.14
2023-12-10T03:45:30.506Z,95.27
2023-12-10T03:48:01.248Z,95.49
2023-12-10T03:50:32.393Z,95.58
2023-12-10T03:53:02.894Z,95.48
2023-12-10T03:55:33.791Z,95.55
2023-12-10T03:58:04.009Z,95.37
2023-12-10T04:00:35.084Z,95.63
2023-12-10T04:03:05.759Z,95.47
2023-12-10T04:05:35.685Z,95.32
2023-12-10T04:08:06.611Z,95.05
2023-12-10T04:10:37.289Z,95.08
2023-12-10T04:13:07.525Z,95.18
2023-12-10T04:15:37.505Z,95.54
2023-12-10T04:18:07.746Z,95.53
2023-12-10T04:20:38.489Z,95.58
2023-12-10T04:23:09.372Z,95.44
2023-12-10T04:25:40.065Z,95.40
2023-12-10T04:28:10.356Z,95.51
2023-12-10T04:30:40.554Z,95.46
2023-12-10T04:33:11.223Z,95.37
2023-12-10T04:35:41.623Z,95.38
2023-12-10T04:38:11.348Z,95.67
2023-12-10T04:40:45.342Z,95.80
2023-12-10T04:43:15.924Z,96.08
2023-12-10T04:45:46.397Z,95.89
2023-12-10T04:48:17.060Z,95.96
2023-12-10T04:50:48.732Z,95.74
2023-12-10T04:53:19.705Z,95.78
2023-12-10T04:55:50.595Z,95.68
2023-12-10T04:58:20.372Z,95.58
2023-12-10T05:00:50.606Z,95.82
2023-12-10T05:03:22.045Z,96.15
2023-12-10T05:05:52.766Z,96.30
2023-12-10T05:08:22.540Z,96.40
2023-12-10T05:10:53.058Z,96.32
2023-12-10T05:13:23.852Z,96.25
2023-12-10T05:15:54.850Z,96.12
2023-12-10T05:18:26.080Z,95.11
2023-12-10T05:20:56.413Z,94.29
2023-12-10T05:23:26.550Z,94.14
2023-12-10T05:25:57.653Z,94.31
2023-12-10T05:28:28.262Z,94.20
2023-12-10T05:30:58.538Z,94.07
2023-12-10T05:33:28.404Z,93.74
2023-12-10T05:35:58.567Z,93.56
2023-12-10T05:38:28.786Z,93.43
2023-12-10T05:40:59.937Z,93.21
2023-12-10T05:43:30.131Z,93.31
2023-12-10T05:46:00.030Z,93.18
2023-12-10T05:48:33.320Z,93.01
2023-12-10T05:51:05.828Z,92.74
2023-12-10T05:53:36.898Z,92.29
2023-12-10T05:56:07.707Z,92.61
2023-12-10T05:58:37.910Z,92.39
2023-12-10T06:01:08.820Z,92.36
2023-12-10T06:03:40.156Z,92.08
2023-12-10T06:06:10.591Z,91.99
2023-12-10T06:08:40.775Z,92.00
2023-12-10T06:11:11.450Z,92.29
2023-12-10T06:13:42.862Z,92.26
2023-12-10T06:16:14.360Z,92.58
2023-12-10T06:18:44.372Z,92.82
2023-12-10T06:21:15.057Z,92.92
2023-12-10T06:23:45.845Z,93.24
2023-12-10T06:26:15.626Z,93.44
2023-12-10T06:28:45.904Z,93.37
2023-12-10T06:31:16.915Z,93.25
2023-12-10T06:33:47.998Z,93.31
2023-12-10T06:36:20.201Z,93.54
2023-12-10T06:38:50.397Z,93.76
2023-12-10T06:41:20.286Z,94.09
2023-12-10T06:43:50.619Z,94.45
2023-12-10T06:46:20.856Z,94.80
2023-12-10T06:48:51.284Z,94.78
2023-12-10T06:51:21.351Z,95.21
2023-12-10T06:53:51.459Z,95.48
2023-12-10T06:56:21.333Z,95.87
2023-12-10T06:58:52.116Z,96.23
2023-12-10T07:01:22.778Z,96.70
2023-12-10T07:03:52.630Z,96.64
2023-12-10T07:06:23.676Z,96.81
2023-12-10T07:08:54.310Z,97.00
2023-12-10T07:11:24.651Z,97.35
2023-12-10T07:13:55.678Z,97.59
2023-12-10T07:16:25.569Z,97.70
2023-12-10T07:18:57.052Z,97.79
2023-12-10T07:21:27.971Z,98.13
2023-12-10T07:23:58.108Z,98.35
2023-12-10T07:26:29.029Z,98.60
2023-12-10T07:29:00.404Z,98.83
2023-12-10T07:31:32.570Z,99.04
2023-12-10T07:34:02.712Z,99.21
2023-12-10T07:36:32.824Z,99.46
2023-12-10T07:39:03.857Z,99.56
2023-12-10T07:41:34.262Z,99.54
2023-12-10T07:44:05.609Z,99.55
2023-12-10T07:46:35.664Z,99.65
2023-12-10T07:49:05.620Z,99.85
2023-12-10T07:51:36.413Z,99.86
2023-12-10T07:54:06.766Z,99.96
2023-12-10T07:56:37.492Z,99.87
2023-12-10T07:59:08.032Z,99.99
2023-12-10T08:01:38.761Z,99.99
2023-12-10T08:04:09.126Z,99.99
2023-12-10T08:06:39.637Z,99.99
2023-12-10T08:09:10.048Z,99.89
2023-12-10T08:11:40.132Z,99.83
2023-12-10T08:14:11.986Z,99.64
2023-12-10T08:16:43.048Z,99.73
2023-12-10T08:19:13.956Z,99.87
2023-12-10T08:21:46.213Z,99.80
2023-12-10T08:24:17.238Z,99.96
2023-12-10T08:26:51.004Z,99.91
2023-12-10T08:29:21.718Z,99.97
2023-12-10T08:31:51.615Z,99.80
2023-12-10T08:34:22.488Z,99.45
2023-12-10T08:36:53.067Z,99.18
2023-12-10T08:39:24.274Z,98.96
2023-12-10T08:41:55.262Z,98.56
2023-12-10T08:44:27.925Z,98.15
2023-12-10T08:46:58.363Z,97.62
2023-12-10T08:49:29.107Z,97.48
2023-12-10T08:51:59.845Z,96.88
2023-12-10T08:54:29.656Z,96.14
2023-12-10T08:56:59.610Z,95.67
2023-12-10T08:59:30.454Z,94.88
2023-12-10T09:02:01.110Z,93.60
2023-12-10T09:04:31.022Z,92.84
2023-12-10T09:07:01.733Z,92.24
2023-12-10T09:09:31.583Z,91.51
2023-12-10T09:12:02.530Z,91.70
2023-12-10T09:14:33.420Z,91.62
2023-12-10T09:17:03.290Z,92.19
2023-12-10T09:19:34.286Z,92.23
2023-12-10T09:22:05.509Z,91.98
2023-12-10T09:24:36.031Z,91.14
2023-12-10T09:27:06.011Z,90.47
2023-12-10T09:29:40.669Z,89.68
2023-12-10T09:32:12.401Z,89.89
2023-12-10T09:34:44.687Z,89.33
2023-12-10T09:37:16.563Z,87.64
2023-12-10T09:39:47.865Z,88.81
2023-12-10T09:42:18.341Z,89.24
2023-12-10T09:44:48.550Z,89.26
2023-12-10T09:47:20.101Z,89.43
2023-12-10T09:49:50.840Z,89.49
2023-12-10T09:52:21.538Z,89.12
2023-12-10T09:54:55.330Z,87.90
2023-12-10T09:57:25.651Z,87.17
2023-12-10T09:59:55.508Z,86.72
2023-12-10T10:02:34.273Z,87.86
2023-12-10T10:05:09.845Z,87.50
2023-12-10T10:07:41.689Z,87.54
2023-12-10T10:10:14.128Z,86.41
2023-12-10T10:12:48.490Z,86.42
2023-12-10T10:15:31.868Z,87.96
2023-12-10T10:18:02.743Z,86.64
2023-12-10T10:20:32.590Z,86.54
2023-12-10T10:23:04.180Z,84.73
2023-12-10T10:25:34.897Z,84.47
2023-12-10T10:28:11.617Z,82.62
2023-12-10T10:30:41.781Z,82.87
2023-12-10T10:33:11.777Z,82.37
2023-12-10T10:35:42.807Z,80.96
2023-12-10T10:38:13.698Z,81.74
2023-12-10T10:40:43.528Z,83.18
2023-12-10T10:43:13.676Z,82.67
2023-12-10T10:45:43.689Z,81.75
2023-12-10T10:48:15.981Z,79.70
2023-12-10T10:50:47.456Z,79.37
2023-12-10T10:53:19.080Z,80.75
2023-12-10T10:55:51.115Z,79.94
2023-12-10T10:58:32.958Z,77.87
2023-12-10T11:01:04.140Z,76.32
2023-12-10T11:03:34.827Z,76.05
2023-12-10T11:06:06.874Z,76.09
2023-12-10T11:08:38.385Z,77.08
2023-12-10T11:11:08.792Z,74.22
2023-12-10T11:13:49.656Z,70.95
2023-12-10T11:16:19.572Z,73.37
2023-12-10T11:19:16.819Z,76.60
2023-12-10T11:21:48.842Z,75.21
2023-12-10T11:24:20.960Z,75.38
2023-12-10T11:26:51.326Z,75.19
2023-12-10T11:29:21.611Z,76.74
2023-12-10T11:31:52.680Z,76.66
2023-12-10T11:34:23.509Z,78.10
2023-12-10T11:36:53.846Z,75.64
2023-12-10T11:39:23.944Z,72.89
2023-12-10T11:41:59.913Z,71.78
2023-12-10T11:44:36.583Z,68.89
2023-12-10T11:47:07.559Z,66.11
2023-12-10T11:49:38.076Z,66.85
2023-12-10T11:52:09.481Z,66.53
2023-12-10T11:54:41.215Z,68.19
2023-12-10T11:57:11.715Z,68.51
2023-12-10T11:59:41.515Z,70.55
2023-12-10T12:02:11.888Z,70.10
2023-12-10T12:04:42.709Z,69.27
2023-12-10T12:07:30.748Z,71.13
2023-12-10T12:10:01.265Z,68.35
2023-12-10T12:12:31.480Z,70.17
2023-12-10T12:15:02.742Z,70.69
2023-12-10T12:17:33.366Z,70.48
2023-12-10T12:20:28.053Z,70.50
2023-12-10T12:22:58.201Z,71.89
2023-12-10T12:25:28.174Z,66.13
2023-12-10T12:27:59.293Z,67.50
2023-12-10T12:30:30.756Z,63.34
2023-12-10T12:33:01.231Z,63.46
2023-12-10T12:35:33.080Z,65.89
2023-12-10T12:38:03.216Z,66.75
2023-12-10T12:40:33.500Z,68.26
2023-12-10T12:43:04.628Z,66.21
2023-12-10T12:45:35.118Z,67.36
2023-12-10T12:48:05.248Z,67.29
2023-12-10T12:50:35.512Z,67.58
2023-12-10T12:53:07.384Z,69.62
2023-12-10T12:55:37.454Z,69.00
2023-12-10T12:58:08.067Z,69.59
2023-12-10T13:00:37.992Z,66.74
2023-12-10T13:03:08.594Z,68.25
2023-12-10T13:05:39.124Z,63.03
2023-12-10T13:08:11.496Z,62.23
2023-12-10T13:10:41.700Z,60.54
2023-12-10T13:13:11.647Z,62.18
2023-12-10T13:15:42.258Z,63.68
2023-12-10T13:18:14.271Z,65.58
2023-12-10T13:20:44.653Z,67.51
2023-12-10T13:23:14.450Z,65.80
2023-12-10T13:25:44.616Z,64.68
2023-12-10T13:28:15.834Z,67.21
2023-12-10T13:30:46.947Z,67.52
2023-12-10T13:33:17.325Z,67.65
2023-12-10T13:35:47.601Z,69.11
2023-12-10T13:38:18.201Z,69.91
2023-12-10T13:40:51.619Z,65.84
2023-12-10T13:43:23.126Z,64.99
2023-12-10T13:45:54.723Z,66.57
2023-12-10T13:48:25.228Z,66.69
2023-12-10T13:50:56.156Z,65.01
2023-12-10T13:53:27.359Z,66.20
2023-12-10T13:55:58.915Z,64.33
2023-12-10T13:58:28.799Z,66.12
2023-12-10T14:00:59.383Z,64.19
2023-12-10T14:03:30.688Z,64.64
2023-12-10T14:06:01.601Z,65.78
2023-12-10T14:08:31.716Z,66.64
2023-12-10T14:11:02.812Z,65.07
2023-12-10T14:13:32.978Z,64.90
2023-12-10T14:16:03.102Z,61.61
2023-12-10T14:18:33.276Z,66.38
2023-12-10T14:21:04.234Z,65.84
2023-12-10T14:23:36.053Z,63.93
2023-12-10T14:26:06.518Z,65.95
2023-12-10T14:28:36.344Z,66.87
2023-12-10T14:31:07.033Z,67.58
2023-12-10T14:33:39.265Z,66.91
2023-12-10T14:36:10.806Z,66.40
2023-12-10T14:38:40.694Z,65.58
2023-12-10T14:41:10.998Z,66.67
2023-12-10T14:43:40.748Z,64.85
2023-12-10T14:46:13.168Z,63.13
2023-12-10T14:48:44.224Z,68.07
2023-12-10T14:51:15.739Z,66.47
2023-12-10T14:53:46.344Z,66.64
2023-12-10T14:56:16.616Z,67.68
2023-12-10T14:58:47.148Z,67.11
2023-12-10T15:01:17.960Z,68.03
2023-12-10T15:03:48.475Z,68.09
2023-12-10T15:06:18.532Z,66.40
2023-12-10T15:08:49.156Z,66.26
2023-12-10T15:11:23.195Z,63.75
2023-12-10T15:13:53.803Z,65.30
2023-12-10T15:16:25.630Z,67.65
2023-12-10T15:18:56.900Z,69.21
2023-12-10T15:21:27.906Z,70.29
2023-12-10T15:23:58.031Z,72.05
2023-12-10T15:26:27.834Z,73.85
2023-12-10T15:28:58.972Z,74.51
2023-12-10T15:31:29.740Z,73.99
2023-12-10T15:34:00.114Z,75.10
2023-12-10T15:36:30.516Z,75.51
2023-12-10T15:39:00.395Z,76.51
2023-12-10T15:41:31.501Z,77.76
2023-12-10T15:44:02.146Z,78.82
2023-12-10T15:46:31.861Z,78.53
2023-12-10T15:49:03.356Z,78.63
2023-12-10T15:51:33.826Z,80.09
2023-12-10T15:54:04.804Z,81.79
2023-12-10T15:56:34.584Z,85.96
2023-12-10T15:59:05.203Z,89.85
2023-12-10T16:01:35.574Z,93.42
2023-12-10T16:04:10.044Z,94.93
2023-12-10T16:06:40.177Z,96.33
2023-12-10T16:09:10.081Z,96.59
2023-12-10T16:11:40.961Z,97.56
2023-12-10T16:14:13.422Z,97.39
2023-12-10T16:16:43.819Z,98.40
2023-12-10T16:19:13.900Z,98.56
2023-12-10T16:21:44.108Z,99.52
2023-12-10T16:24:14.429Z,99.67
2023-12-10T16:26:44.899Z,99.99
2023-12-10T16:29:15.289Z,99.99
2023-12-10T16:31:45.048Z,99.99
2023-12-10T16:34:16.342Z,99.99
2023-12-10T16:36:48.808Z,99.99
2023-12-10T16:39:19.054Z,99.99
2023-12-10T16:41:48.785Z,99.99
2023-12-10T16:44:19.230Z,99.99
2023-12-10T16:46:49.013Z,99.99
2023-12-10T16:49:19.866Z,99.99
2023-12-10T16:51:50.380Z,99.99
2023-12-10T16:54:20.477Z,99.99
2023-12-10T16:56:51.194Z,99.99
2023-12-10T16:59:22.978Z,99.99
2023-12-10T17:01:54.908Z,99.99
2023-12-10T17:04:25.301Z,99.99
2023-12-10T17:06:55.164Z,99.99
2023-12-10T17:09:25.430Z,99.99
2023-12-10T17:11:57.585Z,99.99
2023-12-10T17:14:29.140Z,99.99
2023-12-10T17:16:59.888Z,99.99
2023-12-10T17:19:32.050Z,99.99
2023-12-10T17:22:02.358Z,99.99
2023-12-10T17:24:32.925Z,99.99
2023-12-10T17:27:03.518Z,99.99
2023-12-10T17:29:33.842Z,99.99
2023-12-10T17:32:04.081Z,99.99
2023-12-10T17:34:34.528Z,99.99
2023-12-10T17:37:06.659Z,99.99
2023-12-10T17:39:37.643Z,99.99
2023-12-10T17:42:08.013Z,99.99
2023-12-10T17:44:47.325Z,99.99
2023-12-10T17:47:25.514Z,99.99
2023-12-10T17:49:55.811Z,99.99
2023-12-10T17:52:25.692Z,99.96
2023-12-10T17:54:55.822Z,99.99
2023-12-10T17:57:26.122Z,99.35
2023-12-10T17:59:57.157Z,97.97
2023-12-10T18:02:27.498Z,97.79
2023-12-10T18:04:57.459Z,97.49
2023-12-10T18:07:28.517Z,95.11
2023-12-10T18:09:59.094Z,91.98
2023-12-10T18:12:29.380Z,92.97
2023-12-10T18:14:59.830Z,92.44
2023-12-10T18:17:31.012Z,91.78
2023-12-10T18:20:02.334Z,90.76
2023-12-10T18:22:33.118Z,85.09
2023-12-10T18:25:04.828Z,84.98
2023-12-10T18:27:39.047Z,84.49
2023-12-10T18:30:10.162Z,87.44
2023-12-10T18:32:41.083Z,87.09
2023-12-10T18:35:11.818Z,88.87
2023-12-10T18:37:41.667Z,87.60
2023-12-10T18:40:12.967Z,87.77
2023-12-10T18:42:44.190Z,87.39
2023-12-10T18:45:14.407Z,89.19
2023-12-10T18:47:44.332Z,90.56
2023-12-10T18:50:15.523Z,91.48
2023-12-10T18:52:46.380Z,91.18
2023-12-10T18:55:17.813Z,90.47
2023-12-10T18:57:47.981Z,91.04
2023-12-10T19:00:19.923Z,89.09
2023-12-10T19:02:51.119Z,90.20
2023-12-10T19:05:22.577Z,88.23
2023-12-10T19:07:52.907Z,89.06
2023-12-10T19:10:23.239Z,86.98
2023-12-10T19:12:54.025Z,88.42
2023-12-10T19:15:24.311Z,87.61
2023-12-10T19:17:54.784Z,85.05
2023-12-10T19:20:28.420Z,88.94
2023-12-10T19:22:59.025Z,88.24
2023-12-10T19:25:30.144Z,89.29
2023-12-10T19:28:00.349Z,89.19
2023-12-10T19:30:30.841Z,89.24
2023-12-10T19:33:02.881Z,89.47
2023-12-10T19:35:33.984Z,89.28
2023-12-10T19:38:05.364Z,87.89
2023-12-10T19:40:35.931Z,87.52
2023-12-10T19:43:08.328Z,84.72
2023-12-10T19:45:38.982Z,84.62
2023-12-10T19:48:10.046Z,86.28
2023-12-10T19:50:44.784Z,86.52
2023-12-10T19:53:15.770Z,86.56
2023-12-10T19:55:49.050Z,87.65
2023-12-10T19:58:20.302Z,87.73
2023-12-10T20:00:50.345Z,88.40
2023-12-10T20:03:20.510Z,89.57
2023-12-10T20:05:50.826Z,89.90
2023-12-10T20:08:21.354Z,92.15
2023-12-10T20:10:53.053Z,93.15
2023-12-10T20:13:23.526Z,93.66
2023-12-10T20:15:54.026Z,93.97
2023-12-10T20:18:25.980Z,92.90
2023-12-10T20:20:56.908Z,93.00
2023-12-10T20:23:27.580Z,92.72
2023-12-10T20:25:59.842Z,92.94
2023-12-10T20:28:31.153Z,92.38
2023-12-10T20:31:01.336Z,91.29
2023-12-10T20:33:35.122Z,91.93
2023-12-10T20:36:06.380Z,91.98
2023-12-10T20:38:37.897Z,92.42
2023-12-10T20:41:09.624Z,92.95
2023-12-10T20:43:40.403Z,92.34
2023-12-10T20:46:11.150Z,92.77
2023-12-10T20:48:42.611Z,93.17
2023-12-10T20:51:13.108Z,93.47
2023-12-10T20:53:42.888Z,94.12
2023-12-10T20:56:13.536Z,93.50
2023-12-10T20:58:44.022Z,94.10
2023-12-10T21:01:15.068Z,94.05
2023-12-10T21:03:45.283Z,94.72
2023-12-10T21:06:17.268Z,94.89
2023-12-10T21:08:48.343Z,95.24
2023-12-10T21:11:21.399Z,95.38
2023-12-10T21:13:52.026Z,95.15
2023-12-10T21:16:23.356Z,94.65
2023-12-10T21:18:53.921Z,94.82
2023-12-10T21:21:24.626Z,94.87
2023-12-10T21:23:54.334Z,94.78
2023-12-10T21:26:25.029Z,94.59
2023-12-10T21:28:56.228Z,95.17
2023-12-10T21:31:26.572Z,95.68
2023-12-10T21:33:56.479Z,95.38
2023-12-10T21:36:27.043Z,95.46
2023-12-10T21:38:57.383Z,95.57
2023-12-10T21:41:28.442Z,95.82
2023-12-10T21:43:58.411Z,96.01
2023-12-10T21:46:29.882Z,96.45
2023-12-10T21:49:01.113Z,96.90
2023-12-10T21:51:32.344Z,97.25
2023-12-10T21:54:08.411Z,97.48
2023-12-10T21:56:42.498Z,97.88
2023-12-10T21:59:13.009Z,98.14
2023-12-10T22:01:44.516Z,98.57
2023-12-10T22:04:14.614Z,98.72
2023-12-10T22:06:44.828Z,98.82
2023-12-10T22:09:15.210Z,98.87
2023-12-10T22:11:46.002Z,98.89
2023-12-10T22:14:17.750Z,98.96
2023-12-10T22:16:47.746Z,99.04
2023-12-10T22:19:17.854Z,99.06
2023-12-10T22:21:49.662Z,99.06
2023-12-10T22:24:20.655Z,99.38
2023-12-10T22:26:50.952Z,99.50
2023-12-10T22:29:20.664Z,99.70
2023-12-10T22:31:51.224Z,99.78
2023-12-10T22:34:21.916Z,99.82
2023-12-10T22:36:52.820Z,99.99
2023-12-10T22:39:22.716Z,99.99
2023-12-10T22:41:53.417Z,99.99
2023-12-10T22:44:24.078Z,99.99
2023-12-10T22:46:55.063Z,99.99
2023-12-10T22:49:26.137Z,99.99
2023-12-10T22:51:57.093Z,99.99
2023-12-10T22:54:27.207Z,99.99
2023-12-10T22:56:57.679Z,99.99
2023-12-10T22:59:28.394Z,99.99
2023-12-10T23:01:59.066Z,99.99
2023-12-10T23:04:29.969Z,99.99
2023-12-10T23:07:01.143Z,99.99
2023-12-10T23:09:31.818Z,99.99
2023-12-10T23:12:01.807Z,99.99
2023-12-10T23:14:33.072Z,99.99
2023-12-10T23:17:04.006Z,99.99
2023-12-10T23:19:35.224Z,99.99
2023-12-10T23:22:05.790Z,99.99
2023-12-10T23:24:35.654Z,99.65
2023-12-10T23:27:06.284Z,99.74
2023-12-10T23:29:36.802Z,99.59
2023-12-10T23:32:07.443Z,99.70
2023-12-10T23:34:37.428Z,99.63
2023-12-10T23:37:08.266Z,99.38
2023-12-10T23:39:39.611Z,99.23
2023-12-10T23:42:09.692Z,99.32
2023-12-10T23:44:39.637Z,99.32
2023-12-10T23:47:11.693Z,99.17
2023-12-10T23:49:43.143Z,99.58
2023-12-10T23:52:13.629Z,99.47
2023-12-10T23:54:43.592Z,99.73
2023-12-10T23:57:15.869Z,99.99
2023-12-10T23:59:46.297Z,99.99
